Latest Weather Observations for Fowlers Gap

IDN60801

Issued at 2:33 pm EDT Sunday 1 February 2015 (issued every 30 minutes, with the page automatically refreshed every 10 minutes)

About weather observations | Map of weather stations | Latest weather observations for NSW | Other Formats
Station Details ID: 046128 Name: FOWLERS GAP AWS Lat: -31.09 Lon: 141.70 Height: 181.0 m
Data from the previous 72 hours. | See also: Recent months at Fowlers Gap
Date/Time
EDT
Temp
°C
App
Temp
°C
Dew
Point
Rel
Hum
%
Delta-T
°C
Wind Press
QNH
hPa
Press
MSL
hPa
Rain
since 9 am
mm
Dir
 
Spd
km/h
Gust
km/h
Spd
kts
Gust
kts
01/02:30pm 26.0 21.5 6.1 28 10.4 SSW 19 32 10 17 1012.0 1010.9 0.0
01/02:00pm 25.5 21.0 6.2 29 10.1 SSW 19 30 10 16 1012.4 1011.3 0.0
01/01:30pm 25.5 21.5 6.7 30 9.9 SW 17 37 9 20 1012.8 1011.7 0.0
01/01:00pm 24.9 21.0 7.1 32 9.4 S 17 37 9 20 1013.1 1012.0 0.0
01/12:30pm 24.7 19.9 7.4 33 9.2 S 22 33 12 18 1013.3 1012.2 0.0
01/12:00pm 24.3 18.9 7.9 35 8.8 S 26 33 14 18 1013.5 1012.5 0.0
01/11:30am 23.5 17.6 7.6 36 8.4 SSE 28 39 15 21 1013.7 1012.7 0.0
01/11:00am 22.2 15.9 7.2 38 7.8 SSE 30 43 16 23 1013.8 1012.8 0.0
01/10:30am 21.9 16.0 7.7 40 7.4 SSE 28 39 15 21 1013.7 1012.5 0.0
01/10:00am 21.3 15.4 7.5 41 7.2 SSE 28 41 15 22 1013.5 1012.3 0.0
01/09:30am 20.2 13.4 7.9 45 6.4 SSE 33 44 18 24 1013.2 1012.0 0.0
01/09:00am 19.9 13.1 7.9 46 6.2 SSE 33 43 18 23 1012.9 1011.7 0.0
01/08:30am 18.9 12.1 7.7 48 5.8 SSE 33 44 18 24 1012.6 1011.4 0.0
01/08:00am 18.1 11.3 7.8 51 5.3 S 33 41 18 22 1012.0 1010.8 0.0
01/07:30am 17.6 11.8 7.9 53 5.0 S 28 35 15 19 1011.7 1010.5 0.0
01/07:00am 17.6 12.2 7.9 53 5.0 SSE 26 37 14 20 1011.3 1010.1 0.0
01/06:30am 17.9 12.3 7.3 50 5.4 S 26 35 14 19 1010.8 1009.6 0.0
01/06:00am 18.3 12.9 6.5 46 5.9 S 24 35 13 19 1010.7 1009.5 0.0
01/05:30am 18.7 14.5 5.5 42 6.5 S 17 22 9 12 1010.5 1009.3 0.0
01/05:00am 19.0 15.4 5.1 40 6.8 S 13 20 7 11 1010.4 1009.2 0.0
01/04:30am 18.2 15.9 4.7 41 6.5 SW 6 9 3 5 1010.5 1009.3 0.0
01/04:00am 18.3 15.2 3.8 38 6.9 SSW 9 13 5 7 1010.6 1009.4 0.0
01/03:30am 19.2 15.4 3.8 36 7.4 S 13 17 7 9 1010.6 1009.4 0.0
01/03:00am 18.6 15.6 4.0 38 7.0 S 9 11 5 6 1010.8 1009.6 0.0
01/02:30am 18.6 15.3 4.4 39 6.8 S 11 13 6 7 1010.9 1009.7 0.0
01/02:00am 19.5 16.1 4.0 36 7.5 S 11 13 6 7 1011.0 1009.8 0.0
01/01:30am 21.9 17.3 3.6 30 8.9 SSE 17 20 9 11 1011.2 1010.0 0.0
01/01:00am 22.3 18.0 3.4 29 9.2 SE 15 19 8 10 1011.3 1010.1 0.0
01/12:30am 23.0 18.0 3.5 28 9.5 SSE 19 24 10 13 1011.3 1010.1 0.0
01/12:00am 22.6 18.4 3.7 29 9.2 SSE 15 20 8 11 1011.2 1010.0 0.0
 
Date/Time
EDT
Temp
°C
App
Temp
°C
Dew
Point
Rel
Hum
%
Delta-T
°C
Wind Press
QNH
hPa
Press
MSL
hPa
Rain
since 9 am
mm
Dir
 
Spd
km/h
Gust
km/h
Spd
kts
Gust
kts
31/11:30pm 23.2 18.9 3.2 27 9.7 SSE 15 19 8 10 1011.2 1010.0 0.0
31/11:00pm 24.0 19.2 2.8 25 10.3 S 17 20 9 11 1011.1 1009.9 0.0
31/10:30pm 23.6 19.7 3.5 27 9.9 SSE 13 15 7 8 1010.9 1009.7 0.0
31/10:00pm 23.9 20.5 3.8 27 9.9 SSE 11 13 6 7 1010.7 1009.5 0.0
31/09:30pm 25.3 21.8 3.3 24 10.9 SSE 11 13 6 7 1010.4 1009.2 0.0
31/09:00pm 26.5 22.3 1.7 20 12.0 SSW 13 15 7 8 1010.2 1009.0 0.0
31/08:30pm 28.0 22.9 0.7 17 13.1 SSW 17 22 9 12 1010.0 1008.7 0.0
31/08:00pm 29.1 23.2 1.6 17 13.5 SW 22 30 12 16 1009.9 1008.6 0.0
31/07:30pm 29.8 24.5 2.1 17 13.8 SSW 19 24 10 13 1009.5 1008.2 0.0
31/07:00pm 30.0 24.2 2.3 17 13.9 S 22 35 12 19 1009.1 1007.9 0.0
31/06:30pm 30.2 24.7 1.6 16 14.2 SSW 20 32 11 17 1009.3 1008.0 0.0
31/06:00pm 30.5 25.0 1.9 16 14.3 S 20 35 11 19 1009.3 1008.0 0.0
31/05:30pm 30.6 25.3 2.8 17 14.1 SW 20 33 11 18 1009.5 1008.2 0.0
31/05:00pm 30.9 26.2 3.0 17 14.2 WSW 17 28 9 15 1009.8 1008.5 0.0
31/04:30pm 29.8 24.3 2.1 17 13.8 SSW 20 37 11 20 1010.1 1008.8 0.0
31/04:00pm 30.2 24.7 1.6 16 14.2 S 20 33 11 18 1010.3 1009.1 0.0
31/03:30pm 30.0 24.7 3.1 18 13.7 S 20 37 11 20 1010.6 1009.4 0.0
31/03:00pm 29.7 24.6 2.9 18 13.6 SSW 19 32 10 17 1011.0 1009.8 0.0
31/02:30pm 29.5 25.3 1.9 17 13.7 SSE 13 26 7 14 1011.2 1010.0 0.0
31/02:00pm 29.0 24.9 2.3 18 13.3 SSW 13 20 7 11 1011.4 1010.2 0.0
31/01:30pm 27.8 22.3 2.1 19 12.6 SSW 20 35 11 19 1011.8 1010.6 0.0
31/01:00pm 27.5 22.7 2.6 20 12.3 SW 17 30 9 16 1012.3 1011.1 0.0
31/12:30pm 27.2 22.3 2.3 20 12.2 SSW 17 26 9 14 1012.5 1011.3 0.0
31/12:00pm 26.4 21.5 1.7 20 12.0 SE 17 33 9 18 1012.7 1011.5 0.0
31/11:30am 25.9 22.0 1.2 20 11.8 SE 11 20 6 11 1012.9 1011.7 0.0
31/11:00am 25.4 20.9 2.2 22 11.3 SE 15 22 8 12 1012.8 1011.6 0.0
31/10:30am 24.9 20.9 3.0 24 10.7 SE 13 19 7 10 1012.8 1011.6 0.0
31/10:00am 23.7 19.3 2.5 25 10.2 SE 15 20 8 11 1012.6 1011.4 0.0
31/09:30am 22.8 18.3 2.3 26 9.8 SE 15 20 8 11 1012.6 1011.4 0.0
31/09:00am 22.7 18.3 2.8 27 9.6 SE 15 22 8 12 1012.4 1011.2 0.0
31/08:30am 20.0 17.4 4.1 35 7.7 S 7 11 4 6 1012.3 1011.1 0.0
31/08:00am 17.2 15.9 4.2 42 6.2 CALM 0 0 0 0 1012.1 1010.9 0.0
31/07:30am 15.3 12.4 4.4 48 5.1 WNW 9 11 5 6 1012.1 1010.9 0.0
31/07:00am 14.4 13.2 4.4 51 4.7 CALM 0 0 0 0 1011.8 1010.6 0.0
31/06:30am 14.6 13.3 4.3 50 4.8 CALM 0 0 0 0 1011.5 1010.3 0.0
31/06:00am 15.3 14.1 4.4 48 5.1 CALM 0 0 0 0 1011.2 1010.0 0.0
31/05:30am 15.6 13.1 3.7 45 5.5 SSW 6 7 3 4 1010.9 1009.7 0.0
31/05:00am 16.0 13.3 3.8 44 5.7 S 7 9 4 5 1010.7 1009.5 0.0
31/04:30am 17.4 13.9 3.7 40 6.4 S 11 13 6 7 1010.6 1009.4 0.0
31/04:00am 18.2 14.4 3.7 38 6.9 SSE 13 15 7 8 1010.4 1009.2 0.0
31/03:30am 18.6 15.4 3.3 36 7.2 SSE 9 11 5 6 1010.3 1009.1 0.0
31/03:00am 19.5 15.6 3.2 34 7.7 SSE 13 17 7 9 1010.3 1009.1 0.0
31/02:30am 20.2 15.9 3.0 32 8.2 SSE 15 17 8 9 1010.5 1009.3 0.0
31/02:00am 20.4 15.7 3.2 32 8.2 SSE 17 20 9 11 1010.6 1009.4 0.0
31/01:30am 20.8 16.3 4.0 33 8.2 SSE 17 20 9 11 1010.7 1009.5 0.0
31/01:00am 21.2 17.1 4.3 33 8.3 SSE 15 19 8 10 1010.9 1009.7 0.0
31/12:30am 21.5 17.4 4.1 32 8.5 SSE 15 17 8 9 1010.9 1009.7 0.0
31/12:00am 21.9 18.1 4.0 31 8.8 SSE 13 15 7 8 1011.1 1009.9 0.0
 
Date/Time
EDT
Temp
°C
App
Temp
°C
Dew
Point
Rel
Hum
%
Delta-T
°C
Wind Press
QNH
hPa
Press
MSL
hPa
Rain
since 9 am
mm
Dir
 
Spd
km/h
Gust
km/h
Spd
kts
Gust
kts
30/11:30pm 22.3 18.5 3.9 30 9.0 SSE 13 17 7 9 1011.2 1010.0 0.0
30/11:00pm 23.0 19.2 4.0 29 9.4 SSE 13 15 7 8 1011.1 1009.9 0.0
30/10:30pm 22.9 19.0 3.4 28 9.5 SSE 13 15 7 8 1011.1 1009.9 0.0
30/10:00pm 23.7 19.7 3.1 26 10.0 SSE 13 15 7 8 1010.7 1009.5 0.0
30/09:30pm 25.0 20.8 1.8 22 11.1 SSE 13 17 7 9 1010.4 1009.2 0.0
30/09:00pm 26.3 21.6 0.9 19 12.1 SSE 15 19 8 10 1010.1 1008.8 0.0
30/08:30pm 27.6 22.0 1.2 18 12.8 S 20 28 11 15 1009.7 1008.4 0.0
30/08:00pm 28.6 22.7 2.0 18 13.2 SSE 22 28 12 15 1009.5 1008.2 0.0
30/07:30pm 29.7 23.9 2.1 17 13.7 S 22 32 12 17 1009.3 1008.0 0.0
30/07:00pm 29.7 23.5 2.1 17 13.8 S 24 35 13 19 1009.0 1007.8 0.0
30/06:30pm 29.9 23.3 2.2 17 13.8 S 26 39 14 21 1008.9 1007.7 0.0
30/06:00pm 30.1 23.6 2.4 17 13.9 SSW 26 35 14 19 1009.0 1007.8 0.0
30/05:30pm 30.5 24.4 2.7 17 14.1 SSW 24 37 13 20 1009.1 1007.9 0.0
30/05:00pm 30.5 24.3 4.3 19 13.6 S 26 39 14 21 1009.4 1008.1 0.0
30/04:30pm 30.6 25.0 3.6 18 13.9 S 22 33 12 18 1009.8 1008.5 0.0
30/04:00pm 30.0 25.1 3.9 19 13.5 S 19 26 10 14 1010.0 1008.7 0.0
30/03:30pm 29.7 22.9 2.9 18 13.5 S 28 41 15 22 1010.5 1009.3 0.0
30/03:00pm 29.0 23.1 3.8 20 12.9 S 24 33 13 18 1010.9 1009.7 0.0
30/02:30pm 29.3 23.8 4.0 20 13.0 S 22 35 12 19 1011.4 1010.2 0.0
30/02:21pm 29.9 24.0 3.8 19 13.4 SSE 24 48 13 26 1011.5 1010.3 0.0
30/02:00pm 28.8 23.2 3.6 20 12.8 S 22 32 12 17 1011.8 1010.6 0.0
30/01:30pm 28.5 22.8 2.7 19 12.9 S 22 35 12 19 1012.4 1011.2 0.0
30/01:00pm 27.8 21.7 2.8 20 12.5 SSE 24 35 13 19 1012.7 1011.5 0.0
30/12:30pm 27.9 22.8 2.9 20 12.5 S 19 24 10 13 1013.0 1011.8 0.0
30/12:00pm 26.8 21.2 3.3 22 11.7 SSE 22 30 12 16 1013.1 1011.9 0.0
30/11:30am 25.7 21.1 3.6 24 11.0 SSE 17 22 9 12 1013.3 1012.1 0.0
30/11:00am 25.6 21.1 4.1 25 10.8 SE 17 26 9 14 1013.2 1012.0 0.0
30/10:30am 24.6 20.1 4.4 27 10.1 SE 17 26 9 14 1013.2 1012.0 0.0
30/10:00am 23.4 18.3 3.9 28 9.6 SSE 20 30 11 16 1013.2 1012.0 0.0
30/09:30am 22.4 16.7 3.0 28 9.3 SE 22 32 12 17 1013.1 1011.9 0.0
30/09:00am 21.8 15.8 3.5 30 8.9 SE 24 33 13 18 1013.1 1011.9 0.0
30/08:30am 20.8 15.8 3.5 32 8.3 SSE 19 26 10 14 1012.8 1011.6 0.0
30/08:00am 19.4 15.1 3.2 34 7.7 SSE 15 19 8 10 1012.5 1011.3 0.0
30/07:30am 18.3 14.7 3.0 36 7.1 SSE 11 17 6 9 1012.2 1011.0 0.0
30/07:00am 17.7 13.7 2.8 37 6.9 S 13 17 7 9 1011.9 1010.7 0.0
30/06:30am 17.7 14.1 3.2 38 6.8 S 11 15 6 8 1011.6 1010.4 0.0
30/06:00am 17.6 14.4 3.1 38 6.8 S 9 13 5 7 1011.2 1010.0 0.0
30/05:30am 18.5 15.3 2.8 35 7.3 S 9 13 5 7 1011.1 1009.9 0.0
30/05:00am 19.3 15.6 2.6 33 7.8 SSE 11 15 6 8 1011.0 1009.8 0.0
30/04:30am 19.9 16.2 2.3 31 8.2 SSE 11 13 6 7 1011.0 1009.8 0.0
30/04:00am 20.5 16.4 2.3 30 8.5 SSE 13 19 7 10 1010.9 1009.7 0.0
30/03:30am 21.0 16.1 2.3 29 8.8 SSE 17 20 9 11 1011.1 1009.9 0.0
30/03:00am 21.5 16.0 1.7 27 9.2 SSE 20 26 11 14 1011.3 1010.1 0.0
30/02:30am 22.0 16.5 1.6 26 9.5 SSE 20 28 11 15 1011.2 1010.0 0.0
30/02:00am 22.3 16.1 1.9 26 9.6 SSE 24 32 13 17 1011.4 1010.2 0.0
30/01:30am 23.1 16.8 1.4 24 10.2 SSE 24 32 13 17 1011.7 1010.5 0.0
30/01:00am 23.2 17.4 2.1 25 10.1 SSE 22 30 12 16 1011.8 1010.6 0.0
30/12:30am 23.4 17.6 2.3 25 10.1 SSE 22 30 12 16 1012.0 1010.8 0.0
30/12:00am 23.6 18.3 3.0 26 10.0 SSE 20 28 11 15 1012.1 1010.9 0.0
 
Date/Time
EDT
Temp
°C
App
Temp
°C
Dew
Point
Rel
Hum
%
Delta-T
°C
Wind Press
QNH
hPa
Press
MSL
hPa
Rain
since 9 am
mm
Dir
 
Spd
km/h
Gust
km/h
Spd
kts
Gust
kts
29/11:30pm 24.1 19.1 3.4 26 10.2 SSE 19 24 10 13 1012.1 1010.9 0.0
29/11:00pm 24.6 19.9 3.3 25 10.5 SSE 17 20 9 11 1012.0 1010.8 0.0
29/10:30pm 26.0 20.8 2.7 22 11.4 SSE 19 22 10 12 1011.9 1010.7 0.0
29/10:00pm 26.9 21.3 3.4 22 11.8 SSE 22 28 12 15 1011.7 1010.5 0.0
29/09:30pm 27.3 22.3 3.7 22 11.9 SE 19 22 10 12 1011.4 1010.2 0.0
29/09:00pm 28.3 23.4 3.9 21 12.4 SSE 19 26 10 14 1011.0 1009.8 0.0
29/08:30pm 29.3 23.3 3.3 19 13.2 SSE 24 32 13 17 1010.8 1009.6 0.0
29/08:00pm 30.1 23.5 4.0 19 13.5 SSE 28 35 15 19 1010.6 1009.4 0.0
29/07:30pm 30.8 25.2 5.3 20 13.5 S 24 33 13 18 1010.1 1008.8 0.0
29/07:00pm 31.2 25.8 6.3 21 13.5 SSE 24 32 13 17 1009.9 1008.6 0.0
29/06:30pm 31.3 25.8 5.7 20 13.7 S 24 39 13 21 1009.8 1008.5 0.0
29/06:00pm 31.6 27.2 7.3 22 13.4 S 20 32 11 17 1010.0 1008.7 0.0
29/05:30pm 31.4 26.7 7.8 23 13.1 SSE 22 33 12 18 1010.1 1008.8 0.0
29/05:00pm 31.9 26.8 7.5 22 13.5 SSW 24 37 13 20 1010.4 1009.2 0.0
29/04:30pm 31.7 26.7 8.0 23 13.2 SSE 24 35 13 19 1010.6 1009.4 0.0
29/04:00pm 32.1 27.2 8.4 23 13.3 SSE 24 35 13 19 1010.8 1009.6 0.0
29/03:30pm 32.4 27.9 9.9 25 12.9 S 24 41 13 22 1011.1 1009.9 0.0
29/03:00pm 31.7 27.5 9.8 26 12.5 SW 22 35 12 19 1011.4 1010.2 0.0

Other Formats:

Comma delimited format used in spreadsheet applications
http://www.bom.gov.au/fwo/IDN60801/IDN60801.94686.axf

JavaScript Object Notation format (JSON) in row-major order
http://www.bom.gov.au/fwo/IDN60801/IDN60801.94686.json